createdAt,value
2023-05-05T00:01:25.723Z,49631.31
2023-05-05T00:03:52.584Z,49575.50
2023-05-05T00:06:19.564Z,49583.47
2023-05-05T00:08:46.449Z,49567.53
2023-05-05T00:11:13.185Z,49601.41
2023-05-05T00:13:39.891Z,49603.41
2023-05-05T00:16:06.868Z,49571.50
2023-05-05T00:18:33.914Z,49559.56
2023-05-05T00:21:01.067Z,49615.38
2023-05-05T00:23:27.871Z,49631.31
2023-05-05T00:25:54.554Z,49593.44
2023-05-05T00:28:21.958Z,49599.41
2023-05-05T00:30:48.714Z,49551.56
2023-05-05T00:33:15.438Z,49601.41
2023-05-05T00:35:42.249Z,49595.44
2023-05-05T00:38:09.471Z,49613.38
2023-05-05T00:40:37.216Z,49583.47
2023-05-05T00:43:05.253Z,49581.47
2023-05-05T00:45:32.140Z,49585.47
2023-05-05T00:48:00.429Z,49603.41
2023-05-05T00:50:29.555Z,49599.41
2023-05-05T00:53:04.420Z,49627.31
2023-05-05T00:55:32.269Z,49617.38
2023-05-05T00:58:00.283Z,49591.44
2023-05-05T01:00:27.693Z,49599.41
2023-05-05T01:02:55.560Z,49579.47
2023-05-05T01:05:24.039Z,49615.38
2023-05-05T01:07:59.883Z,49615.38
2023-05-05T01:10:37.149Z,49655.25
2023-05-05T01:13:21.489Z,49597.44
2023-05-05T01:16:10.058Z,49625.34
2023-05-05T01:19:23.036Z,49637.28
2023-05-05T01:21:57.184Z,49629.31
2023-05-05T01:24:39.378Z,49615.38
2023-05-05T01:27:39.420Z,49611.38
2023-05-05T01:30:43.295Z,49631.31
2023-05-05T01:33:15.655Z,49591.44
2023-05-05T01:35:50.204Z,49589.44
2023-05-05T01:38:25.441Z,49613.38
2023-05-05T01:41:14.522Z,49609.38
2023-05-05T01:43:45.780Z,49619.34
2023-05-05T01:46:14.520Z,49651.25
2023-05-05T01:48:43.776Z,49637.28
2023-05-05T01:51:12.850Z,49583.47
2023-05-05T01:53:39.784Z,49601.41
2023-05-05T01:56:08.360Z,49595.44
2023-05-05T01:58:36.455Z,49659.22
2023-05-05T02:01:04.605Z,49621.34
2023-05-05T02:03:34.060Z,49651.25
2023-05-05T02:06:02.070Z,49657.22
2023-05-05T02:08:30.880Z,49629.31
2023-05-05T02:10:58.353Z,49635.31
2023-05-05T02:13:26.047Z,49657.22
2023-05-05T02:15:53.373Z,49631.31
2023-05-05T02:18:22.926Z,49649.25
2023-05-05T02:20:50.578Z,49613.38
2023-05-05T02:23:17.283Z,49635.31
2023-05-05T02:25:49.464Z,49643.28
2023-05-05T02:28:21.562Z,49625.34
2023-05-05T02:31:00.358Z,49629.31
2023-05-05T02:33:32.992Z,49649.25
2023-05-05T02:36:07.616Z,49655.25
2023-05-05T02:38:37.213Z,49655.25
2023-05-05T02:41:05.983Z,49643.28
2023-05-05T02:43:34.276Z,49631.31
2023-05-05T02:46:01.483Z,49595.44
2023-05-05T02:48:31.334Z,49635.31
2023-05-05T02:51:00.976Z,49611.38
2023-05-05T02:53:32.872Z,49631.31
2023-05-05T02:56:26.700Z,49629.31
2023-05-05T02:59:28.245Z,49625.34
2023-05-05T03:02:08.355Z,49651.25
2023-05-05T03:04:42.754Z,49653.25
2023-05-05T03:07:19.278Z,49661.22
2023-05-05T03:09:58.127Z,49623.34
2023-05-05T03:12:31.315Z,49655.25
2023-05-05T03:15:14.050Z,49657.22
2023-05-05T03:17:43.121Z,49689.13
2023-05-05T03:20:12.561Z,49651.25
2023-05-05T03:22:42.137Z,49629.31
2023-05-05T03:25:12.796Z,49619.34
2023-05-05T03:27:41.235Z,49635.31
2023-05-05T03:30:09.282Z,49647.25
2023-05-05T03:32:42.787Z,49625.34
2023-05-05T03:35:09.856Z,49659.22
2023-05-05T03:37:36.625Z,49683.16
2023-05-05T03:40:03.902Z,49663.22
2023-05-05T03:42:31.794Z,49657.22
2023-05-05T03:44:58.572Z,49663.22
2023-05-05T03:47:25.342Z,49653.25
2023-05-05T03:49:53.592Z,49679.16
2023-05-05T03:52:20.375Z,49671.19
2023-05-05T03:54:47.319Z,49659.22
2023-05-05T03:57:13.981Z,49645.28
2023-05-05T03:59:41.113Z,49633.31
2023-05-05T04:02:08.670Z,49677.16
2023-05-05T04:04:35.689Z,49639.28
2023-05-05T04:07:03.044Z,49651.25
2023-05-05T04:09:29.883Z,49659.22
2023-05-05T04:11:56.989Z,49639.28
2023-05-05T04:14:24.405Z,49667.19
2023-05-05T04:16:51.577Z,49655.25
2023-05-05T04:19:18.689Z,49657.22
2023-05-05T04:21:45.408Z,49669.19
2023-05-05T04:24:12.139Z,49661.22
2023-05-05T04:26:38.920Z,49631.31
2023-05-05T04:29:05.612Z,49653.25
2023-05-05T04:31:32.392Z,49661.22
2023-05-05T04:33:59.487Z,49639.28
2023-05-05T04:36:26.184Z,49705.06
2023-05-05T04:38:54.002Z,49679.16
2023-05-05T04:41:21.441Z,49679.16
2023-05-05T04:43:48.795Z,49675.19
2023-05-05T04:46:15.889Z,49651.25
2023-05-05T04:48:42.892Z,49641.28
2023-05-05T04:51:09.741Z,49663.22
2023-05-05T04:53:37.446Z,49673.19
2023-05-05T04:56:04.419Z,49695.09
2023-05-05T04:58:31.332Z,49645.28
2023-05-05T05:00:58.362Z,49707.06
2023-05-05T05:03:25.194Z,49663.22
2023-05-05T05:05:52.021Z,49675.19
2023-05-05T05:08:18.882Z,49691.13
2023-05-05T05:10:45.691Z,49699.09
2023-05-05T05:13:13.042Z,49651.25
2023-05-05T05:15:40.671Z,49651.25
2023-05-05T05:18:07.407Z,49671.19
2023-05-05T05:20:34.358Z,49679.16
2023-05-05T05:23:02.348Z,49671.19
2023-05-05T05:25:30.800Z,49693.13
2023-05-05T05:28:09.022Z,49663.22
2023-05-05T05:30:39.156Z,49649.25
2023-05-05T05:33:07.541Z,49657.22
2023-05-05T05:35:34.490Z,49649.25
2023-05-05T05:38:01.346Z,49657.22
2023-05-05T05:40:28.421Z,49659.22
2023-05-05T05:42:55.408Z,49647.25
2023-05-05T05:45:23.835Z,49663.22
2023-05-05T05:47:51.050Z,49647.25
2023-05-05T05:50:17.993Z,49629.31
2023-05-05T05:52:45.057Z,49613.38
2023-05-05T05:55:11.725Z,49663.22
2023-05-05T05:57:39.392Z,49629.31
2023-05-05T06:00:08.743Z,49653.25
2023-05-05T06:02:38.595Z,49603.41
2023-05-05T06:05:08.717Z,49635.31
2023-05-05T06:07:35.522Z,49653.25
2023-05-05T06:10:14.500Z,49647.25
2023-05-05T06:12:49.442Z,49621.34
2023-05-05T06:15:16.236Z,49659.22
2023-05-05T06:17:43.125Z,49663.22
2023-05-05T06:20:10.917Z,49597.44
2023-05-05T06:22:37.597Z,49635.31
2023-05-05T06:25:04.579Z,49639.28
2023-05-05T06:27:31.280Z,49653.25
2023-05-05T06:29:57.909Z,49659.22
2023-05-05T06:32:24.646Z,49639.28
2023-05-05T06:34:51.344Z,49667.19
2023-05-05T06:37:18.072Z,49605.41
2023-05-05T06:39:44.700Z,49677.16
2023-05-05T06:42:11.381Z,49643.28
2023-05-05T06:44:38.015Z,49655.25
2023-05-05T06:47:04.803Z,49647.25
2023-05-05T06:49:31.441Z,49653.25
2023-05-05T06:51:58.114Z,49691.13
2023-05-05T06:54:24.841Z,49663.22
2023-05-05T06:56:51.487Z,49637.28
2023-05-05T06:59:18.488Z,49599.41
2023-05-05T07:01:45.225Z,49663.22
2023-05-05T07:04:12.821Z,49657.22
2023-05-05T07:06:39.610Z,49627.31
2023-05-05T07:09:06.655Z,49595.44
2023-05-05T07:11:33.411Z,49635.31
2023-05-05T07:14:00.387Z,49635.31
2023-05-05T07:16:27.413Z,49621.34
2023-05-05T07:18:54.291Z,49627.31
2023-05-05T07:21:20.947Z,49623.34
2023-05-05T07:23:48.060Z,49627.31
2023-05-05T07:26:15.226Z,49639.28
2023-05-05T07:28:43.126Z,49621.34
2023-05-05T07:31:09.897Z,49635.31
2023-05-05T07:33:36.579Z,49591.44
2023-05-05T07:36:03.547Z,49631.31
2023-05-05T07:38:30.251Z,49625.34
2023-05-05T07:40:56.892Z,49641.28
2023-05-05T07:43:23.552Z,49605.41
2023-05-05T07:45:50.312Z,49623.34
2023-05-05T07:48:17.019Z,49601.41
2023-05-05T07:50:43.711Z,49603.41
2023-05-05T07:53:14.923Z,49595.44
2023-05-05T07:55:42.271Z,49607.41
2023-05-05T07:58:10.866Z,49619.34
2023-05-05T08:00:38.225Z,49595.44
2023-05-05T08:03:05.477Z,49617.38
2023-05-05T08:05:32.653Z,49603.41
2023-05-05T08:07:59.501Z,49607.41
2023-05-05T08:10:26.228Z,49609.38
2023-05-05T08:12:54.404Z,49585.47
2023-05-05T08:15:21.606Z,49591.44
2023-05-05T08:17:51.039Z,49623.34
2023-05-05T08:20:19.779Z,49601.41
2023-05-05T08:22:47.101Z,49561.53
2023-05-05T08:25:14.406Z,49611.38
2023-05-05T08:27:42.540Z,49587.47
2023-05-05T08:30:09.917Z,49615.38
2023-05-05T08:32:36.962Z,49595.44
2023-05-05T08:35:06.811Z,49611.38
2023-05-05T08:37:34.093Z,49627.31
2023-05-05T08:40:00.794Z,49617.38
2023-05-05T08:42:37.728Z,49615.38
2023-05-05T08:45:08.291Z,49635.31
2023-05-05T08:47:36.135Z,49629.31
2023-05-05T08:50:05.681Z,49611.38
2023-05-05T08:52:45.170Z,49625.34
2023-05-05T08:55:28.109Z,49631.31
2023-05-05T08:57:57.248Z,49627.31
2023-05-05T09:00:26.538Z,49591.44
2023-05-05T09:02:56.405Z,49619.34
2023-05-05T09:05:23.728Z,49623.34
2023-05-05T09:07:51.053Z,49623.34
2023-05-05T09:10:18.097Z,49595.44
2023-05-05T09:12:45.093Z,49609.38
2023-05-05T09:15:13.951Z,49671.19
2023-05-05T09:17:41.702Z,49637.28
2023-05-05T09:20:09.578Z,49651.25
2023-05-05T09:22:36.147Z,49615.38
2023-05-05T09:25:04.567Z,49625.34
2023-05-05T09:27:35.403Z,49617.38
2023-05-05T09:30:03.573Z,49627.31
2023-05-05T09:32:31.261Z,49627.31
2023-05-05T09:35:01.464Z,49619.34
2023-05-05T09:37:31.587Z,49625.34
2023-05-05T09:40:03.048Z,49635.31
2023-05-05T09:42:29.830Z,49645.28
2023-05-05T09:44:59.660Z,49639.28
2023-05-05T09:47:37.355Z,49613.38
2023-05-05T09:50:06.053Z,49639.28
2023-05-05T09:52:32.929Z,49657.22
2023-05-05T09:54:59.697Z,49657.22
2023-05-05T09:57:35.395Z,49663.22
2023-05-05T10:00:04.277Z,49651.25
2023-05-05T10:02:32.999Z,49649.25
2023-05-05T10:05:13.336Z,49645.28
2023-05-05T10:07:42.514Z,49637.28
2023-05-05T10:10:14.727Z,49629.31
2023-05-05T10:12:42.224Z,49671.19
2023-05-05T10:15:10.785Z,49663.22
2023-05-05T10:20:21.150Z,49645.28
2023-05-05T10:22:53.184Z,49647.25
2023-05-05T10:25:38.825Z,49645.28
2023-05-05T10:28:08.038Z,49663.22
2023-05-05T10:30:41.704Z,49647.25
2023-05-05T10:33:34.101Z,49645.28
2023-05-05T10:36:06.608Z,49649.25
2023-05-05T10:38:34.280Z,49685.13
2023-05-05T10:41:02.265Z,49675.19
2023-05-05T10:43:31.412Z,49683.16
2023-05-05T10:45:59.178Z,49659.22
2023-05-05T10:48:37.969Z,49675.19
2023-05-05T10:51:38.640Z,49685.13
2023-05-05T10:54:17.195Z,49671.19
2023-05-05T10:56:44.015Z,49663.22
2023-05-05T10:59:38.944Z,49681.16
2023-05-05T11:02:28.049Z,49671.19
2023-05-05T11:05:08.203Z,49639.28
2023-05-05T11:07:35.536Z,49609.38
2023-05-05T11:10:04.670Z,49603.41
2023-05-05T11:12:33.112Z,49643.28
2023-05-05T11:15:26.157Z,49655.25
2023-05-05T11:17:54.261Z,49655.25
2023-05-05T11:20:36.952Z,49661.22
2023-05-05T11:23:21.651Z,49675.19
2023-05-05T11:25:48.511Z,49667.19
2023-05-05T11:28:17.176Z,49651.25
2023-05-05T11:30:56.290Z,49691.13
2023-05-05T11:33:28.354Z,49633.31
2023-05-05T11:36:05.093Z,49635.31
2023-05-05T11:38:39.018Z,49639.28
2023-05-05T11:41:18.038Z,49623.34
2023-05-05T11:43:44.833Z,49647.25
2023-05-05T11:46:12.878Z,49633.31
2023-05-05T11:48:47.371Z,49667.19
2023-05-05T11:51:14.765Z,49655.25
2023-05-05T11:53:48.794Z,49663.22
2023-05-05T11:56:19.326Z,49667.19
2023-05-05T11:58:47.725Z,49653.25
2023-05-05T12:01:15.701Z,49655.25
2023-05-05T12:03:45.387Z,49677.16
2023-05-05T12:06:13.121Z,49635.31
2023-05-05T12:08:40.963Z,49631.31
2023-05-05T12:11:09.971Z,49659.22
2023-05-05T12:13:36.870Z,49653.25
2023-05-05T12:16:14.326Z,49619.34
2023-05-05T12:18:41.902Z,49623.34
2023-05-05T12:21:19.348Z,49631.31
2023-05-05T12:23:46.483Z,49611.38
2023-05-05T12:26:27.654Z,49609.38
2023-05-05T12:28:55.399Z,49619.34
2023-05-05T12:31:22.016Z,49625.34
2023-05-05T12:33:49.119Z,49605.41
2023-05-05T12:36:16.461Z,49627.31
2023-05-05T12:38:43.210Z,49635.31
2023-05-05T12:41:09.964Z,49627.31
2023-05-05T12:43:36.874Z,49595.44
2023-05-05T12:46:08.800Z,49615.38
2023-05-05T12:48:40.452Z,49607.41
2023-05-05T12:51:21.359Z,49595.44
2023-05-05T12:53:49.922Z,49585.47
2023-05-05T12:56:29.581Z,49587.47
2023-05-05T12:58:56.880Z,49635.31
2023-05-05T13:01:23.607Z,49619.34
2023-05-05T13:04:07.477Z,49637.28
2023-05-05T13:06:34.449Z,49635.31
2023-05-05T13:09:01.111Z,49621.34
2023-05-05T13:11:27.834Z,49607.41
2023-05-05T13:13:54.605Z,49667.19
2023-05-05T13:16:21.335Z,49643.28
2023-05-05T13:18:50.770Z,49617.38
2023-05-05T13:21:17.606Z,49655.25
2023-05-05T13:23:44.948Z,49659.22
2023-05-05T13:26:13.510Z,49661.22
2023-05-05T13:28:40.801Z,49641.28
2023-05-05T13:31:07.785Z,49609.38
2023-05-05T13:33:35.032Z,49625.34
2023-05-05T13:36:02.947Z,49615.38
2023-05-05T13:38:33.101Z,49613.38
2023-05-05T13:41:00.160Z,49609.38
2023-05-05T13:43:26.833Z,49579.47
2023-05-05T13:45:53.633Z,49567.53
2023-05-05T13:48:20.839Z,49555.56
2023-05-05T13:50:47.696Z,49559.56
2023-05-05T13:53:15.088Z,49545.59
2023-05-05T13:55:42.805Z,49571.50
2023-05-05T13:58:12.698Z,49643.28
2023-05-05T14:00:39.901Z,49623.34
2023-05-05T14:03:06.574Z,49631.31
2023-05-05T14:05:34.022Z,49611.38
2023-05-05T14:08:00.662Z,49631.31
2023-05-05T14:10:29.826Z,49589.44
2023-05-05T14:12:57.272Z,49599.41
2023-05-05T14:15:24.034Z,49563.53
2023-05-05T14:17:51.068Z,49597.44
2023-05-05T14:20:17.907Z,49585.47
2023-05-05T14:22:44.530Z,49599.41
2023-05-05T14:25:11.286Z,49589.44
2023-05-05T14:27:37.911Z,49539.63
2023-05-05T14:30:05.182Z,49575.50
2023-05-05T14:32:31.916Z,49595.44
2023-05-05T14:34:58.561Z,49549.59
2023-05-05T14:37:25.249Z,49541.59
2023-05-05T14:39:51.915Z,49557.56
2023-05-05T14:42:18.559Z,49505.72
2023-05-05T14:44:45.483Z,49513.69
2023-05-05T14:47:12.381Z,49499.75
2023-05-05T14:49:39.019Z,49473.84
2023-05-05T14:52:05.680Z,49563.53
2023-05-05T14:54:32.513Z,49589.44
2023-05-05T14:56:59.460Z,49623.34
2023-05-05T14:59:27.595Z,49575.50
2023-05-05T15:01:54.792Z,49591.44
2023-05-05T15:04:21.614Z,49609.38
2023-05-05T15:06:48.212Z,49589.44
2023-05-05T15:09:14.998Z,49599.41
2023-05-05T15:11:41.687Z,49627.31
2023-05-05T15:14:08.493Z,49619.34
2023-05-05T15:16:35.568Z,49609.38
2023-05-05T15:19:02.429Z,49595.44
2023-05-05T15:21:29.213Z,49605.41
2023-05-05T15:23:56.056Z,49599.41
2023-05-05T15:26:23.907Z,49613.38
2023-05-05T15:28:52.493Z,49519.69
2023-05-05T15:31:19.193Z,49511.72
2023-05-05T15:33:48.470Z,49525.66
2023-05-05T15:36:15.171Z,49515.69
2023-05-05T15:38:45.145Z,49519.69
2023-05-05T15:41:11.828Z,49491.78
2023-05-05T15:43:38.506Z,49499.75
2023-05-05T15:46:05.279Z,49543.59
2023-05-05T15:48:31.955Z,49567.53
2023-05-05T15:50:58.621Z,49511.72
2023-05-05T15:53:26.752Z,49519.69
2023-05-05T15:55:53.409Z,49511.72
2023-05-05T15:58:20.084Z,49527.66
2023-05-05T16:00:46.729Z,49503.72
2023-05-05T16:03:13.463Z,49507.72
2023-05-05T16:05:40.127Z,49539.63
2023-05-05T16:08:09.730Z,49509.72
2023-05-05T16:10:39.402Z,49517.69
2023-05-05T16:13:06.278Z,49505.72
2023-05-05T16:15:34.628Z,49521.69
2023-05-05T16:18:01.402Z,49491.78
2023-05-05T16:20:29.715Z,49503.72
2023-05-05T16:22:57.336Z,49539.63
2023-05-05T16:25:23.944Z,49495.75
2023-05-05T16:27:50.661Z,49531.63
2023-05-05T16:30:17.392Z,49515.69
2023-05-05T16:32:44.094Z,49521.69
2023-05-05T16:35:12.134Z,49543.59
2023-05-05T16:37:38.808Z,49523.66
2023-05-05T16:40:06.720Z,49575.50
2023-05-05T16:42:33.513Z,49569.50
2023-05-05T16:45:00.312Z,49565.53
2023-05-05T16:47:27.365Z,49555.56
2023-05-05T16:49:54.063Z,49579.47
2023-05-05T16:52:20.745Z,49567.53
2023-05-05T16:54:49.276Z,49569.50
2023-05-05T16:57:15.974Z,49567.53
2023-05-05T16:59:42.620Z,49555.56
2023-05-05T17:02:09.485Z,49559.56
2023-05-05T17:04:36.133Z,49635.31
2023-05-05T17:07:02.858Z,49589.44
2023-05-05T17:09:29.478Z,49577.50
2023-05-05T17:11:56.244Z,49583.47
2023-05-05T17:14:24.368Z,49611.38
2023-05-05T17:16:51.267Z,49567.53
2023-05-05T17:19:17.966Z,49555.56
2023-05-05T17:21:44.665Z,49595.44
2023-05-05T17:24:11.440Z,49565.53
2023-05-05T17:26:38.831Z,49567.53
2023-05-05T17:29:05.477Z,49563.53
2023-05-05T17:31:32.300Z,49575.50
2023-05-05T17:33:58.988Z,49555.56
2023-05-05T17:36:25.688Z,49615.38
2023-05-05T17:38:52.326Z,49609.38
2023-05-05T17:41:18.979Z,49593.44
2023-05-05T17:43:45.740Z,49631.31
2023-05-05T17:46:12.402Z,49565.53
2023-05-05T17:48:39.225Z,49593.44
2023-05-05T17:51:05.935Z,49623.34
2023-05-05T17:53:32.674Z,49601.41
2023-05-05T17:55:59.389Z,49629.31
2023-05-05T17:58:26.099Z,49575.50
2023-05-05T18:00:52.762Z,49605.41
2023-05-05T18:03:19.613Z,49603.41
2023-05-05T18:05:46.516Z,49593.44
2023-05-05T18:08:13.221Z,49607.41
2023-05-05T18:10:39.913Z,49591.44
2023-05-05T18:13:06.609Z,49581.47
2023-05-05T18:15:33.612Z,49577.50
2023-05-05T18:18:01.183Z,49575.50
2023-05-05T18:20:27.933Z,49593.44
2023-05-05T18:22:54.660Z,49615.38
2023-05-05T18:25:21.360Z,49611.38
2023-05-05T18:27:48.160Z,49577.50
2023-05-05T18:30:14.956Z,49607.41
2023-05-05T18:32:41.614Z,49607.41
2023-05-05T18:35:08.873Z,49571.50
2023-05-05T18:37:35.796Z,49583.47
2023-05-05T18:40:02.596Z,49641.28
2023-05-05T18:42:29.279Z,49639.28
2023-05-05T18:44:56.046Z,49615.38
2023-05-05T18:47:23.590Z,49631.31
2023-05-05T18:49:50.239Z,49611.38
2023-05-05T18:52:17.037Z,49647.25
2023-05-05T18:54:43.761Z,49633.31
2023-05-05T18:57:10.416Z,49647.25
2023-05-05T18:59:37.336Z,49623.34
2023-05-05T19:02:04.147Z,49623.34
2023-05-05T19:04:32.220Z,49647.25
2023-05-05T19:06:59.509Z,49647.25
2023-05-05T19:09:26.407Z,49651.25
2023-05-05T19:11:53.283Z,49597.44
2023-05-05T19:14:19.970Z,49667.19
2023-05-05T19:16:46.968Z,49683.16
2023-05-05T19:19:13.723Z,49667.19
2023-05-05T19:21:40.400Z,49643.28
2023-05-05T19:24:08.891Z,49655.25
2023-05-05T19:26:35.796Z,49667.19
2023-05-05T19:29:02.466Z,49659.22
2023-05-05T19:31:30.962Z,49619.34
2023-05-05T19:33:59.764Z,49687.13
2023-05-05T19:36:27.720Z,49621.34
2023-05-05T19:38:55.288Z,49651.25
2023-05-05T19:41:21.965Z,49679.16
2023-05-05T19:43:49.913Z,49643.28
2023-05-05T19:46:17.278Z,49671.19
2023-05-05T19:48:44.406Z,49655.25
2023-05-05T19:51:11.435Z,49671.19
2023-05-05T19:53:40.117Z,49681.16
2023-05-05T19:56:06.843Z,49683.16
2023-05-05T19:59:01.786Z,49655.25
2023-05-05T20:01:28.953Z,49671.19
2023-05-05T20:03:56.588Z,49645.28
2023-05-05T20:06:23.694Z,49631.31
2023-05-05T20:08:50.506Z,49643.28
2023-05-05T20:11:17.651Z,49685.13
2023-05-05T20:13:44.698Z,49643.28
2023-05-05T20:16:12.174Z,49677.16
2023-05-05T20:18:38.911Z,49687.13
2023-05-05T20:21:06.247Z,49669.19
2023-05-05T20:23:33.636Z,49633.31
2023-05-05T20:26:00.603Z,49689.13
2023-05-05T20:28:27.374Z,49643.28
2023-05-05T20:30:54.065Z,49679.16
2023-05-05T20:33:20.688Z,49623.34
2023-05-05T20:35:47.450Z,49675.19
2023-05-05T20:38:14.112Z,49677.16
2023-05-05T20:40:41.522Z,49647.25
2023-05-05T20:43:08.216Z,49647.25
2023-05-05T20:45:35.024Z,49643.28
2023-05-05T20:48:01.976Z,49689.13
2023-05-05T20:50:28.764Z,49653.25
2023-05-05T20:52:55.808Z,49653.25
2023-05-05T20:55:22.606Z,49647.25
2023-05-05T20:57:49.294Z,49651.25
2023-05-05T21:00:16.168Z,49619.34
2023-05-05T21:02:43.065Z,49679.16
2023-05-05T21:05:10.056Z,49701.09
2023-05-05T21:07:36.917Z,49695.09
2023-05-05T21:10:04.879Z,49639.28
2023-05-05T21:12:31.554Z,49679.16
2023-05-05T21:14:58.948Z,49663.22
2023-05-05T21:17:26.767Z,49655.25
2023-05-05T21:19:54.152Z,49667.19
2023-05-05T21:22:21.360Z,49691.13
2023-05-05T21:24:48.256Z,49671.19
2023-05-05T21:27:15.214Z,49695.09
2023-05-05T21:29:41.992Z,49725.00
2023-05-05T21:32:10.520Z,49675.19
2023-05-05T21:34:38.694Z,49683.16
2023-05-05T21:37:06.502Z,49695.09
2023-05-05T21:39:33.547Z,49703.09
2023-05-05T21:42:00.821Z,49683.16
2023-05-05T21:44:28.283Z,49675.19
2023-05-05T21:46:55.683Z,49677.16
2023-05-05T21:49:22.561Z,49675.19
2023-05-05T21:51:50.240Z,49681.16
2023-05-05T21:54:16.995Z,49647.25
2023-05-05T21:56:43.776Z,49675.19
2023-05-05T21:59:11.117Z,49691.13
2023-05-05T22:01:37.859Z,49671.19
2023-05-05T22:04:04.684Z,49703.09
2023-05-05T22:06:32.478Z,49669.19
2023-05-05T22:08:59.145Z,49671.19
2023-05-05T22:11:26.099Z,49655.25
2023-05-05T22:13:52.746Z,49677.16
2023-05-05T22:16:19.527Z,49635.31
2023-05-05T22:18:46.843Z,49693.13
2023-05-05T22:21:13.810Z,49663.22
2023-05-05T22:23:41.977Z,49653.25
2023-05-05T22:26:09.804Z,49643.28
2023-05-05T22:28:36.600Z,49655.25
2023-05-05T22:31:03.606Z,49695.09
2023-05-05T22:33:30.762Z,49697.09
2023-05-05T22:35:57.549Z,49691.13
2023-05-05T22:38:24.221Z,49651.25
2023-05-05T22:40:50.905Z,49679.16
2023-05-05T22:43:17.666Z,49689.13
2023-05-05T22:45:44.542Z,49663.22
2023-05-05T22:48:11.385Z,49669.19
2023-05-05T22:50:38.203Z,49703.09
2023-05-05T22:53:04.916Z,49705.06
2023-05-05T22:55:31.608Z,49671.19
2023-05-05T22:57:58.308Z,49671.19
2023-05-05T23:00:25.193Z,49689.13
2023-05-05T23:02:51.926Z,49691.13
2023-05-05T23:05:18.721Z,49705.06
2023-05-05T23:07:45.533Z,49697.09
2023-05-05T23:10:12.187Z,49667.19
2023-05-05T23:12:38.947Z,49723.03
2023-05-05T23:15:06.228Z,49707.06
2023-05-05T23:17:32.973Z,49711.06
2023-05-05T23:19:59.660Z,49705.06
2023-05-05T23:22:26.366Z,49703.09
2023-05-05T23:24:53.274Z,49687.13
2023-05-05T23:27:19.885Z,49689.13
2023-05-05T23:29:46.513Z,49687.13
2023-05-05T23:32:13.221Z,49715.03
2023-05-05T23:34:39.890Z,49734.97
2023-05-05T23:37:06.590Z,49723.03
2023-05-05T23:39:34.543Z,49709.06
2023-05-05T23:42:01.217Z,49675.19
2023-05-05T23:44:27.821Z,49711.06
2023-05-05T23:46:54.600Z,49693.13
2023-05-05T23:49:21.319Z,49699.09
2023-05-05T23:51:47.963Z,49734.97
2023-05-05T23:54:14.678Z,49689.13
2023-05-05T23:56:41.316Z,49691.13
2023-05-05T23:59:08.347Z,49721.03
